sensor_id;sensor_type;location;lat;lon;timestamp;P1;durP1;ratioP1;P2;durP2;ratioP2
75787;SDS011;64406;50.024;14.492;2023-10-31T00:02:13;10.65;;;4.15;;
75787;SDS011;64406;50.024;14.492;2023-10-31T00:04:39;5.97;;;3.75;;
75787;SDS011;64406;50.024;14.492;2023-10-31T00:07:05;6.90;;;4.50;;
75787;SDS011;64406;50.024;14.492;2023-10-31T00:09:31;4.85;;;3.53;;
75787;SDS011;64406;50.024;14.492;2023-10-31T00:11:57;6.10;;;4.05;;
75787;SDS011;64406;50.024;14.492;2023-10-31T00:14:23;5.72;;;4.35;;
75787;SDS011;64406;50.024;14.492;2023-10-31T00:16:48;5.03;;;4.07;;
75787;SDS011;64406;50.024;14.492;2023-10-31T00:19:14;5.47;;;3.72;;
75787;SDS011;64406;50.024;14.492;2023-10-31T00:21:40;7.80;;;4.32;;
75787;SDS011;64406;50.024;14.492;2023-10-31T00:24:05;7.78;;;4.45;;
75787;SDS011;64406;50.024;14.492;2023-10-31T00:26:31;5.88;;;4.07;;
75787;SDS011;64406;50.024;14.492;2023-10-31T00:28:57;6.45;;;3.63;;
75787;SDS011;64406;50.024;14.492;2023-10-31T00:31:22;9.32;;;4.32;;
75787;SDS011;64406;50.024;14.492;2023-10-31T00:33:48;7.93;;;4.57;;
75787;SDS011;64406;50.024;14.492;2023-10-31T00:36:14;6.82;;;4.53;;
75787;SDS011;64406;50.024;14.492;2023-10-31T00:38:39;8.07;;;4.32;;
75787;SDS011;64406;50.024;14.492;2023-10-31T00:41:05;7.82;;;5.00;;
75787;SDS011;64406;50.024;14.492;2023-10-31T00:43:30;8.38;;;4.40;;
75787;SDS011;64406;50.024;14.492;2023-10-31T00:45:56;11.48;;;5.40;;
75787;SDS011;64406;50.024;14.492;2023-10-31T00:48:22;6.32;;;4.35;;
75787;SDS011;64406;50.024;14.492;2023-10-31T00:50:47;7.15;;;4.68;;
75787;SDS011;64406;50.024;14.492;2023-10-31T00:53:13;6.72;;;4.43;;
75787;SDS011;64406;50.024;14.492;2023-10-31T00:55:39;9.15;;;5.20;;
75787;SDS011;64406;50.024;14.492;2023-10-31T00:58:05;8.00;;;5.05;;
75787;SDS011;64406;50.024;14.492;2023-10-31T01:00:31;10.30;;;5.38;;
75787;SDS011;64406;50.024;14.492;2023-10-31T01:02:57;9.80;;;6.18;;
75787;SDS011;64406;50.024;14.492;2023-10-31T01:05:22;7.60;;;5.50;;
75787;SDS011;64406;50.024;14.492;2023-10-31T01:07:48;14.25;;;6.53;;
75787;SDS011;64406;50.024;14.492;2023-10-31T01:10:14;9.48;;;5.90;;
75787;SDS011;64406;50.024;14.492;2023-10-31T01:12:40;15.70;;;6.90;;
75787;SDS011;64406;50.024;14.492;2023-10-31T01:15:06;9.68;;;6.40;;
75787;SDS011;64406;50.024;14.492;2023-10-31T01:17:32;9.10;;;6.05;;
75787;SDS011;64406;50.024;14.492;2023-10-31T01:19:57;10.25;;;6.50;;
75787;SDS011;64406;50.024;14.492;2023-10-31T01:22:23;7.18;;;5.32;;
75787;SDS011;64406;50.024;14.492;2023-10-31T01:24:49;7.63;;;4.80;;
75787;SDS011;64406;50.024;14.492;2023-10-31T01:27:15;7.68;;;5.22;;
75787;SDS011;64406;50.024;14.492;2023-10-31T01:29:40;6.78;;;4.50;;
75787;SDS011;64406;50.024;14.492;2023-10-31T01:32:06;10.82;;;4.57;;
75787;SDS011;64406;50.024;14.492;2023-10-31T01:34:32;8.75;;;4.65;;
75787;SDS011;64406;50.024;14.492;2023-10-31T01:36:57;5.50;;;3.67;;
75787;SDS011;64406;50.024;14.492;2023-10-31T01:39:23;5.88;;;3.95;;
75787;SDS011;64406;50.024;14.492;2023-10-31T01:41:49;5.18;;;4.00;;
75787;SDS011;64406;50.024;14.492;2023-10-31T01:44:14;6.53;;;4.05;;
75787;SDS011;64406;50.024;14.492;2023-10-31T01:46:40;6.70;;;3.92;;
75787;SDS011;64406;50.024;14.492;2023-10-31T01:49:05;8.32;;;4.07;;
75787;SDS011;64406;50.024;14.492;2023-10-31T01:51:34;6.75;;;4.20;;
75787;SDS011;64406;50.024;14.492;2023-10-31T01:54:00;5.47;;;4.30;;
75787;SDS011;64406;50.024;14.492;2023-10-31T01:56:26;6.25;;;3.97;;
75787;SDS011;64406;50.024;14.492;2023-10-31T01:58:51;9.52;;;4.70;;
75787;SDS011;64406;50.024;14.492;2023-10-31T02:01:18;7.65;;;3.90;;
75787;SDS011;64406;50.024;14.492;2023-10-31T02:03:44;10.32;;;3.95;;
75787;SDS011;64406;50.024;14.492;2023-10-31T02:06:10;6.43;;;4.40;;
75787;SDS011;64406;50.024;14.492;2023-10-31T02:08:36;7.82;;;4.18;;
75787;SDS011;64406;50.024;14.492;2023-10-31T02:11:02;8.10;;;4.70;;
75787;SDS011;64406;50.024;14.492;2023-10-31T02:13:29;7.47;;;4.38;;
75787;SDS011;64406;50.024;14.492;2023-10-31T02:15:54;7.63;;;5.07;;
75787;SDS011;64406;50.024;14.492;2023-10-31T02:18:20;9.15;;;4.45;;
75787;SDS011;64406;50.024;14.492;2023-10-31T02:20:46;5.57;;;4.40;;
75787;SDS011;64406;50.024;14.492;2023-10-31T02:23:15;8.27;;;4.28;;
75787;SDS011;64406;50.024;14.492;2023-10-31T02:25:41;6.25;;;4.22;;
75787;SDS011;64406;50.024;14.492;2023-10-31T02:28:06;9.75;;;4.82;;
75787;SDS011;64406;50.024;14.492;2023-10-31T02:30:33;6.88;;;4.28;;
75787;SDS011;64406;50.024;14.492;2023-10-31T02:33:00;13.05;;;4.30;;
75787;SDS011;64406;50.024;14.492;2023-10-31T02:35:27;6.00;;;4.03;;
75787;SDS011;64406;50.024;14.492;2023-10-31T02:37:52;9.85;;;4.50;;
75787;SDS011;64406;50.024;14.492;2023-10-31T02:40:18;7.68;;;4.03;;
75787;SDS011;64406;50.024;14.492;2023-10-31T02:42:44;6.53;;;4.47;;
75787;SDS011;64406;50.024;14.492;2023-10-31T02:45:09;7.43;;;4.45;;
75787;SDS011;64406;50.024;14.492;2023-10-31T02:47:35;5.00;;;4.18;;
75787;SDS011;64406;50.024;14.492;2023-10-31T02:50:01;8.18;;;5.72;;
75787;SDS011;64406;50.024;14.492;2023-10-31T02:52:26;8.68;;;4.95;;
75787;SDS011;64406;50.024;14.492;2023-10-31T02:54:52;6.50;;;4.95;;
75787;SDS011;64406;50.024;14.492;2023-10-31T02:57:18;7.32;;;5.40;;
75787;SDS011;64406;50.024;14.492;2023-10-31T02:59:44;10.32;;;6.20;;
75787;SDS011;64406;50.024;14.492;2023-10-31T03:02:09;9.63;;;6.18;;
75787;SDS011;64406;50.024;14.492;2023-10-31T03:04:36;10.20;;;6.82;;
75787;SDS011;64406;50.024;14.492;2023-10-31T03:07:02;9.52;;;6.45;;
75787;SDS011;64406;50.024;14.492;2023-10-31T03:09:28;11.18;;;6.28;;
75787;SDS011;64406;50.024;14.492;2023-10-31T03:11:53;12.40;;;6.72;;
75787;SDS011;64406;50.024;14.492;2023-10-31T03:14:19;11.00;;;6.15;;
75787;SDS011;64406;50.024;14.492;2023-10-31T03:16:44;11.85;;;6.85;;
75787;SDS011;64406;50.024;14.492;2023-10-31T03:19:10;12.95;;;7.90;;
75787;SDS011;64406;50.024;14.492;2023-10-31T03:21:35;11.20;;;7.97;;
75787;SDS011;64406;50.024;14.492;2023-10-31T03:24:01;14.30;;;8.30;;
75787;SDS011;64406;50.024;14.492;2023-10-31T03:26:27;12.77;;;8.30;;
75787;SDS011;64406;50.024;14.492;2023-10-31T03:28:53;14.63;;;7.95;;
75787;SDS011;64406;50.024;14.492;2023-10-31T03:31:22;15.32;;;8.63;;
75787;SDS011;64406;50.024;14.492;2023-10-31T03:33:48;12.60;;;8.32;;
75787;SDS011;64406;50.024;14.492;2023-10-31T03:36:14;13.50;;;8.77;;
75787;SDS011;64406;50.024;14.492;2023-10-31T03:38:40;12.85;;;8.05;;
75787;SDS011;64406;50.024;14.492;2023-10-31T03:41:05;12.23;;;8.40;;
75787;SDS011;64406;50.024;14.492;2023-10-31T03:43:31;12.27;;;7.80;;
75787;SDS011;64406;50.024;14.492;2023-10-31T03:45:57;9.95;;;7.40;;
75787;SDS011;64406;50.024;14.492;2023-10-31T03:48:23;11.52;;;7.28;;
75787;SDS011;64406;50.024;14.492;2023-10-31T03:50:49;9.75;;;6.72;;
75787;SDS011;64406;50.024;14.492;2023-10-31T03:53:15;11.90;;;7.40;;
75787;SDS011;64406;50.024;14.492;2023-10-31T03:55:41;11.70;;;7.22;;
75787;SDS011;64406;50.024;14.492;2023-10-31T03:58:07;11.07;;;6.63;;
75787;SDS011;64406;50.024;14.492;2023-10-31T04:00:32;10.93;;;6.60;;
75787;SDS011;64406;50.024;14.492;2023-10-31T04:02:58;8.95;;;6.57;;
75787;SDS011;64406;50.024;14.492;2023-10-31T04:05:24;8.82;;;6.60;;
75787;SDS011;64406;50.024;14.492;2023-10-31T04:07:49;8.88;;;6.53;;
75787;SDS011;64406;50.024;14.492;2023-10-31T04:10:15;11.85;;;6.53;;
75787;SDS011;64406;50.024;14.492;2023-10-31T04:12:43;8.63;;;6.38;;
75787;SDS011;64406;50.024;14.492;2023-10-31T04:15:09;8.38;;;6.60;;
75787;SDS011;64406;50.024;14.492;2023-10-31T04:17:35;10.93;;;5.50;;
75787;SDS011;64406;50.024;14.492;2023-10-31T04:20:01;7.72;;;5.18;;
75787;SDS011;64406;50.024;14.492;2023-10-31T04:22:27;6.40;;;4.68;;
75787;SDS011;64406;50.024;14.492;2023-10-31T04:24:53;8.98;;;5.10;;
75787;SDS011;64406;50.024;14.492;2023-10-31T04:27:18;5.63;;;4.60;;
75787;SDS011;64406;50.024;14.492;2023-10-31T04:29:44;6.53;;;4.35;;
75787;SDS011;64406;50.024;14.492;2023-10-31T04:32:10;6.47;;;4.15;;
75787;SDS011;64406;50.024;14.492;2023-10-31T04:34:36;6.07;;;4.25;;
75787;SDS011;64406;50.024;14.492;2023-10-31T04:37:01;4.82;;;4.10;;
75787;SDS011;64406;50.024;14.492;2023-10-31T04:39:27;5.28;;;4.00;;
75787;SDS011;64406;50.024;14.492;2023-10-31T04:41:53;7.53;;;4.05;;
75787;SDS011;64406;50.024;14.492;2023-10-31T04:44:18;6.95;;;3.90;;
75787;SDS011;64406;50.024;14.492;2023-10-31T04:46:44;5.13;;;3.75;;
75787;SDS011;64406;50.024;14.492;2023-10-31T04:49:09;5.03;;;3.65;;
75787;SDS011;64406;50.024;14.492;2023-10-31T04:51:35;4.03;;;3.10;;
75787;SDS011;64406;50.024;14.492;2023-10-31T04:54:02;4.68;;;3.22;;
75787;SDS011;64406;50.024;14.492;2023-10-31T04:56:28;4.72;;;3.28;;
75787;SDS011;64406;50.024;14.492;2023-10-31T04:58:54;3.33;;;2.90;;
75787;SDS011;64406;50.024;14.492;2023-10-31T05:01:19;4.15;;;2.90;;
75787;SDS011;64406;50.024;14.492;2023-10-31T05:03:45;3.15;;;2.45;;
75787;SDS011;64406;50.024;14.492;2023-10-31T05:06:11;2.85;;;2.22;;
75787;SDS011;64406;50.024;14.492;2023-10-31T05:08:36;4.70;;;2.92;;
75787;SDS011;64406;50.024;14.492;2023-10-31T05:11:02;2.40;;;1.88;;
75787;SDS011;64406;50.024;14.492;2023-10-31T05:13:28;2.45;;;2.20;;
75787;SDS011;64406;50.024;14.492;2023-10-31T05:15:54;3.80;;;2.10;;
75787;SDS011;64406;50.024;14.492;2023-10-31T05:18:20;2.42;;;1.85;;
75787;SDS011;64406;50.024;14.492;2023-10-31T05:20:46;1.95;;;1.70;;
75787;SDS011;64406;50.024;14.492;2023-10-31T05:23:11;1.77;;;1.63;;
75787;SDS011;64406;50.024;14.492;2023-10-31T05:25:38;3.20;;;1.52;;
75787;SDS011;64406;50.024;14.492;2023-10-31T05:28:03;1.38;;;1.25;;
75787;SDS011;64406;50.024;14.492;2023-10-31T05:30:30;2.25;;;1.50;;
75787;SDS011;64406;50.024;14.492;2023-10-31T05:32:55;1.15;;;1.05;;
75787;SDS011;64406;50.024;14.492;2023-10-31T05:35:21;1.85;;;1.13;;
75787;SDS011;64406;50.024;14.492;2023-10-31T05:37:47;2.25;;;1.00;;
75787;SDS011;64406;50.024;14.492;2023-10-31T05:40:13;1.35;;;1.10;;
75787;SDS011;64406;50.024;14.492;2023-10-31T05:42:40;1.00;;;0.90;;
75787;SDS011;64406;50.024;14.492;2023-10-31T05:45:06;1.00;;;0.90;;
75787;SDS011;64406;50.024;14.492;2023-10-31T05:47:32;1.20;;;0.75;;
75787;SDS011;64406;50.024;14.492;2023-10-31T05:50:01;1.35;;;0.98;;
75787;SDS011;64406;50.024;14.492;2023-10-31T05:52:29;1.23;;;0.90;;
75787;SDS011;64406;50.024;14.492;2023-10-31T05:54:55;2.30;;;1.10;;
75787;SDS011;64406;50.024;14.492;2023-10-31T05:57:21;0.60;;;0.60;;
75787;SDS011;64406;50.024;14.492;2023-10-31T05:59:47;1.35;;;0.80;;
75787;SDS011;64406;50.024;14.492;2023-10-31T06:02:16;0.60;;;0.50;;
75787;SDS011;64406;50.024;14.492;2023-10-31T06:04:42;1.77;;;0.68;;
75787;SDS011;64406;50.024;14.492;2023-10-31T06:07:08;1.30;;;1.08;;
75787;SDS011;64406;50.024;14.492;2023-10-31T06:09:33;0.70;;;0.60;;
75787;SDS011;64406;50.024;14.492;2023-10-31T06:12:02;0.70;;;0.70;;
75787;SDS011;64406;50.024;14.492;2023-10-31T06:14:28;2.28;;;0.73;;
75787;SDS011;64406;50.024;14.492;2023-10-31T06:16:53;0.80;;;0.60;;
75787;SDS011;64406;50.024;14.492;2023-10-31T06:19:20;2.42;;;0.77;;
75787;SDS011;64406;50.024;14.492;2023-10-31T06:21:46;1.58;;;0.70;;
75787;SDS011;64406;50.024;14.492;2023-10-31T06:24:12;1.88;;;0.82;;
75787;SDS011;64406;50.024;14.492;2023-10-31T06:26:38;1.13;;;0.70;;
75787;SDS011;64406;50.024;14.492;2023-10-31T06:29:05;0.43;;;0.43;;
75787;SDS011;64406;50.024;14.492;2023-10-31T06:31:30;0.50;;;0.50;;
75787;SDS011;64406;50.024;14.492;2023-10-31T06:33:56;1.15;;;0.85;;
75787;SDS011;64406;50.024;14.492;2023-10-31T06:36:22;0.57;;;0.57;;
75787;SDS011;64406;50.024;14.492;2023-10-31T06:38:47;0.65;;;0.60;;
75787;SDS011;64406;50.024;14.492;2023-10-31T06:41:13;0.82;;;0.60;;
75787;SDS011;64406;50.024;14.492;2023-10-31T06:43:39;4.78;;;0.57;;
75787;SDS011;64406;50.024;14.492;2023-10-31T06:46:05;0.50;;;0.40;;
75787;SDS011;64406;50.024;14.492;2023-10-31T06:48:31;0.95;;;0.80;;
75787;SDS011;64406;50.024;14.492;2023-10-31T06:50:56;0.65;;;0.50;;
75787;SDS011;64406;50.024;14.492;2023-10-31T06:53:22;1.63;;;0.60;;
75787;SDS011;64406;50.024;14.492;2023-10-31T06:55:47;1.05;;;0.60;;
75787;SDS011;64406;50.024;14.492;2023-10-31T06:58:14;0.88;;;0.70;;
75787;SDS011;64406;50.024;14.492;2023-10-31T07:00:39;0.40;;;0.40;;
75787;SDS011;64406;50.024;14.492;2023-10-31T07:03:05;0.90;;;0.70;;
75787;SDS011;64406;50.024;14.492;2023-10-31T07:05:34;0.50;;;0.50;;
75787;SDS011;64406;50.024;14.492;2023-10-31T07:08:03;1.17;;;0.47;;
75787;SDS011;64406;50.024;14.492;2023-10-31T07:10:29;1.15;;;0.70;;
75787;SDS011;64406;50.024;14.492;2023-10-31T07:12:55;2.97;;;0.40;;
75787;SDS011;64406;50.024;14.492;2023-10-31T07:15:21;0.52;;;0.50;;
75787;SDS011;64406;50.024;14.492;2023-10-31T07:17:47;1.98;;;0.47;;
75787;SDS011;64406;50.024;14.492;2023-10-31T07:20:13;0.40;;;0.40;;
75787;SDS011;64406;50.024;14.492;2023-10-31T07:22:39;1.85;;;0.60;;
75787;SDS011;64406;50.024;14.492;2023-10-31T07:25:05;0.40;;;0.40;;
75787;SDS011;64406;50.024;14.492;2023-10-31T07:27:31;1.48;;;0.63;;
75787;SDS011;64406;50.024;14.492;2023-10-31T07:29:57;4.60;;;0.52;;
75787;SDS011;64406;50.024;14.492;2023-10-31T07:32:23;2.28;;;0.57;;
75787;SDS011;64406;50.024;14.492;2023-10-31T07:34:50;0.85;;;0.60;;
75787;SDS011;64406;50.024;14.492;2023-10-31T07:37:16;0.75;;;0.50;;
75787;SDS011;64406;50.024;14.492;2023-10-31T07:39:41;0.85;;;0.40;;
75787;SDS011;64406;50.024;14.492;2023-10-31T07:42:07;1.10;;;0.70;;
75787;SDS011;64406;50.024;14.492;2023-10-31T07:44:35;2.85;;;0.68;;
75787;SDS011;64406;50.024;14.492;2023-10-31T07:47:01;1.20;;;0.60;;
75787;SDS011;64406;50.024;14.492;2023-10-31T07:49:27;1.30;;;0.70;;
75787;SDS011;64406;50.024;14.492;2023-10-31T07:51:53;1.33;;;0.85;;
75787;SDS011;64406;50.024;14.492;2023-10-31T07:54:18;2.05;;;0.80;;
75787;SDS011;64406;50.024;14.492;2023-10-31T07:56:44;1.20;;;0.70;;
75787;SDS011;64406;50.024;14.492;2023-10-31T07:59:10;2.25;;;0.40;;
75787;SDS011;64406;50.024;14.492;2023-10-31T08:01:36;0.60;;;0.60;;
75787;SDS011;64406;50.024;14.492;2023-10-31T08:04:02;0.55;;;0.50;;
75787;SDS011;64406;50.024;14.492;2023-10-31T08:06:28;0.88;;;0.88;;
75787;SDS011;64406;50.024;14.492;2023-10-31T08:08:54;0.50;;;0.50;;
75787;SDS011;64406;50.024;14.492;2023-10-31T08:11:20;2.50;;;0.60;;
75787;SDS011;64406;50.024;14.492;2023-10-31T08:13:46;2.03;;;0.73;;
75787;SDS011;64406;50.024;14.492;2023-10-31T08:16:16;1.40;;;0.50;;
75787;SDS011;64406;50.024;14.492;2023-10-31T08:18:43;1.85;;;0.50;;
75787;SDS011;64406;50.024;14.492;2023-10-31T08:21:09;0.80;;;0.50;;
75787;SDS011;64406;50.024;14.492;2023-10-31T08:23:36;1.10;;;0.60;;
75787;SDS011;64406;50.024;14.492;2023-10-31T08:26:03;0.60;;;0.50;;
75787;SDS011;64406;50.024;14.492;2023-10-31T08:28:28;1.15;;;0.68;;
75787;SDS011;64406;50.024;14.492;2023-10-31T08:30:55;1.00;;;0.50;;
75787;SDS011;64406;50.024;14.492;2023-10-31T08:33:21;0.30;;;0.30;;
75787;SDS011;64406;50.024;14.492;2023-10-31T08:35:46;0.32;;;0.30;;
75787;SDS011;64406;50.024;14.492;2023-10-31T08:38:13;0.90;;;0.73;;
75787;SDS011;64406;50.024;14.492;2023-10-31T08:40:38;0.70;;;0.60;;
75787;SDS011;64406;50.024;14.492;2023-10-31T08:43:04;1.00;;;0.73;;
75787;SDS011;64406;50.024;14.492;2023-10-31T08:45:32;0.65;;;0.60;;
75787;SDS011;64406;50.024;14.492;2023-10-31T08:47:58;1.25;;;0.47;;
75787;SDS011;64406;50.024;14.492;2023-10-31T08:50:24;0.90;;;0.65;;
75787;SDS011;64406;50.024;14.492;2023-10-31T08:52:50;1.30;;;0.57;;
75787;SDS011;64406;50.024;14.492;2023-10-31T08:55:16;0.68;;;0.68;;
75787;SDS011;64406;50.024;14.492;2023-10-31T08:57:41;1.33;;;0.60;;
75787;SDS011;64406;50.024;14.492;2023-10-31T09:00:07;0.73;;;0.60;;
75787;SDS011;64406;50.024;14.492;2023-10-31T09:02:33;0.45;;;0.40;;
75787;SDS011;64406;50.024;14.492;2023-10-31T09:04:59;2.15;;;0.77;;
75787;SDS011;64406;50.024;14.492;2023-10-31T09:07:24;0.77;;;0.60;;
75787;SDS011;64406;50.024;14.492;2023-10-31T09:09:52;1.10;;;0.50;;
75787;SDS011;64406;50.024;14.492;2023-10-31T09:12:18;1.33;;;0.68;;
75787;SDS011;64406;50.024;14.492;2023-10-31T09:14:44;1.17;;;0.80;;
75787;SDS011;64406;50.024;14.492;2023-10-31T09:17:10;0.85;;;0.55;;
75787;SDS011;64406;50.024;14.492;2023-10-31T09:19:36;0.85;;;0.52;;
75787;SDS011;64406;50.024;14.492;2023-10-31T09:22:01;1.08;;;0.73;;
75787;SDS011;64406;50.024;14.492;2023-10-31T09:24:27;1.33;;;0.70;;
75787;SDS011;64406;50.024;14.492;2023-10-31T09:26:53;1.40;;;0.63;;
75787;SDS011;64406;50.024;14.492;2023-10-31T09:29:18;1.05;;;0.60;;
75787;SDS011;64406;50.024;14.492;2023-10-31T09:31:44;0.75;;;0.60;;
75787;SDS011;64406;50.024;14.492;2023-10-31T09:34:10;0.50;;;0.50;;
75787;SDS011;64406;50.024;14.492;2023-10-31T09:36:35;1.23;;;0.73;;
75787;SDS011;64406;50.024;14.492;2023-10-31T09:39:01;2.17;;;0.60;;
75787;SDS011;64406;50.024;14.492;2023-10-31T09:41:27;2.03;;;0.50;;
75787;SDS011;64406;50.024;14.492;2023-10-31T09:43:53;0.90;;;0.63;;
75787;SDS011;64406;50.024;14.492;2023-10-31T09:46:20;0.65;;;0.60;;
75787;SDS011;64406;50.024;14.492;2023-10-31T09:48:47;1.08;;;0.70;;
75787;SDS011;64406;50.024;14.492;2023-10-31T09:51:14;0.47;;;0.47;;
75787;SDS011;64406;50.024;14.492;2023-10-31T09:53:40;0.40;;;0.32;;
75787;SDS011;64406;50.024;14.492;2023-10-31T09:56:08;0.50;;;0.50;;
75787;SDS011;64406;50.024;14.492;2023-10-31T09:58:35;1.40;;;0.50;;
75787;SDS011;64406;50.024;14.492;2023-10-31T10:01:00;1.65;;;0.70;;
75787;SDS011;64406;50.024;14.492;2023-10-31T10:03:26;0.55;;;0.50;;
75787;SDS011;64406;50.024;14.492;2023-10-31T10:05:52;1.33;;;0.60;;
75787;SDS011;64406;50.024;14.492;2023-10-31T10:08:22;2.38;;;0.98;;
75787;SDS011;64406;50.024;14.492;2023-10-31T10:10:47;3.88;;;0.80;;
75787;SDS011;64406;50.024;14.492;2023-10-31T10:13:18;2.55;;;0.77;;
75787;SDS011;64406;50.024;14.492;2023-10-31T10:15:48;1.48;;;0.50;;
75787;SDS011;64406;50.024;14.492;2023-10-31T10:18:24;1.90;;;0.60;;
75787;SDS011;64406;50.024;14.492;2023-10-31T10:20:57;0.95;;;0.82;;
75787;SDS011;64406;50.024;14.492;2023-10-31T10:25:51;1.40;;;0.60;;
75787;SDS011;64406;50.024;14.492;2023-10-31T10:28:17;0.63;;;0.57;;
75787;SDS011;64406;50.024;14.492;2023-10-31T10:30:46;1.50;;;1.02;;
75787;SDS011;64406;50.024;14.492;2023-10-31T10:33:15;1.65;;;0.52;;
75787;SDS011;64406;50.024;14.492;2023-10-31T10:35:41;0.70;;;0.60;;
75787;SDS011;64406;50.024;14.492;2023-10-31T10:38:10;0.98;;;0.60;;
75787;SDS011;64406;50.024;14.492;2023-10-31T10:40:40;1.42;;;0.75;;
75787;SDS011;64406;50.024;14.492;2023-10-31T10:43:11;2.70;;;0.60;;
75787;SDS011;64406;50.024;14.492;2023-10-31T10:45:50;1.55;;;0.60;;
75787;SDS011;64406;50.024;14.492;2023-10-31T10:48:21;1.80;;;0.60;;
75787;SDS011;64406;50.024;14.492;2023-10-31T10:50:50;2.58;;;0.80;;
75787;SDS011;64406;50.024;14.492;2023-10-31T10:53:23;3.72;;;0.77;;
75787;SDS011;64406;50.024;14.492;2023-10-31T10:59:01;1.65;;;0.40;;
75787;SDS011;64406;50.024;14.492;2023-10-31T11:01:32;1.10;;;0.45;;
75787;SDS011;64406;50.024;14.492;2023-10-31T11:04:01;3.20;;;0.60;;
75787;SDS011;64406;50.024;14.492;2023-10-31T11:06:28;5.10;;;0.68;;
75787;SDS011;64406;50.024;14.492;2023-10-31T11:08:55;2.47;;;1.00;;
75787;SDS011;64406;50.024;14.492;2023-10-31T11:11:20;4.20;;;1.33;;
75787;SDS011;64406;50.024;14.492;2023-10-31T11:13:49;1.15;;;0.90;;
75787;SDS011;64406;50.024;14.492;2023-10-31T11:16:17;2.35;;;1.17;;
75787;SDS011;64406;50.024;14.492;2023-10-31T11:18:52;1.40;;;1.02;;
75787;SDS011;64406;50.024;14.492;2023-10-31T11:21:18;1.08;;;0.80;;
75787;SDS011;64406;50.024;14.492;2023-10-31T11:23:44;1.88;;;0.80;;
75787;SDS011;64406;50.024;14.492;2023-10-31T11:26:10;0.68;;;0.68;;
75787;SDS011;64406;50.024;14.492;2023-10-31T11:28:35;1.23;;;0.70;;
75787;SDS011;64406;50.024;14.492;2023-10-31T11:31:01;3.63;;;0.70;;
75787;SDS011;64406;50.024;14.492;2023-10-31T11:33:28;0.80;;;0.70;;
75787;SDS011;64406;50.024;14.492;2023-10-31T11:36:01;0.82;;;0.70;;
75787;SDS011;64406;50.024;14.492;2023-10-31T11:38:32;2.60;;;0.70;;
75787;SDS011;64406;50.024;14.492;2023-10-31T11:41:00;1.25;;;0.80;;
75787;SDS011;64406;50.024;14.492;2023-10-31T11:46:05;0.82;;;0.82;;
75787;SDS011;64406;50.024;14.492;2023-10-31T11:51:32;1.77;;;0.80;;
75787;SDS011;64406;50.024;14.492;2023-10-31T11:54:01;1.70;;;0.75;;
75787;SDS011;64406;50.024;14.492;2023-10-31T11:56:27;0.82;;;0.60;;
75787;SDS011;64406;50.024;14.492;2023-10-31T12:01:29;1.58;;;0.68;;
75787;SDS011;64406;50.024;14.492;2023-10-31T12:03:55;1.80;;;0.80;;
75787;SDS011;64406;50.024;14.492;2023-10-31T12:06:20;2.72;;;0.85;;
75787;SDS011;64406;50.024;14.492;2023-10-31T12:08:47;1.27;;;0.77;;
75787;SDS011;64406;50.024;14.492;2023-10-31T12:11:17;0.90;;;0.70;;
75787;SDS011;64406;50.024;14.492;2023-10-31T12:13:54;0.85;;;0.77;;
75787;SDS011;64406;50.024;14.492;2023-10-31T12:16:26;1.95;;;0.82;;
75787;SDS011;64406;50.024;14.492;2023-10-31T12:18:57;1.10;;;0.93;;
75787;SDS011;64406;50.024;14.492;2023-10-31T12:21:42;1.65;;;0.75;;
75787;SDS011;64406;50.024;14.492;2023-10-31T12:24:12;2.55;;;0.65;;
75787;SDS011;64406;50.024;14.492;2023-10-31T12:26:39;0.60;;;0.60;;
75787;SDS011;64406;50.024;14.492;2023-10-31T12:29:09;1.75;;;0.90;;
75787;SDS011;64406;50.024;14.492;2023-10-31T12:31:38;1.15;;;0.70;;
75787;SDS011;64406;50.024;14.492;2023-10-31T12:34:10;1.10;;;0.65;;
75787;SDS011;64406;50.024;14.492;2023-10-31T12:36:36;0.95;;;0.70;;
75787;SDS011;64406;50.024;14.492;2023-10-31T12:39:04;0.55;;;0.45;;
75787;SDS011;64406;50.024;14.492;2023-10-31T12:41:32;1.30;;;0.70;;
75787;SDS011;64406;50.024;14.492;2023-10-31T12:43:58;1.65;;;0.70;;
75787;SDS011;64406;50.024;14.492;2023-10-31T12:46:27;0.70;;;0.70;;
75787;SDS011;64406;50.024;14.492;2023-10-31T12:48:57;0.60;;;0.60;;
75787;SDS011;64406;50.024;14.492;2023-10-31T12:51:23;2.33;;;0.80;;
75787;SDS011;64406;50.024;14.492;2023-10-31T12:53:50;3.80;;;0.70;;
75787;SDS011;64406;50.024;14.492;2023-10-31T12:56:34;1.65;;;0.73;;
75787;SDS011;64406;50.024;14.492;2023-10-31T12:59:08;0.93;;;0.60;;
75787;SDS011;64406;50.024;14.492;2023-10-31T13:01:42;1.13;;;0.50;;
75787;SDS011;64406;50.024;14.492;2023-10-31T13:04:08;1.13;;;0.77;;
75787;SDS011;64406;50.024;14.492;2023-10-31T13:06:35;2.33;;;0.75;;
75787;SDS011;64406;50.024;14.492;2023-10-31T13:09:01;0.85;;;0.70;;
75787;SDS011;64406;50.024;14.492;2023-10-31T13:11:31;1.63;;;0.60;;
75787;SDS011;64406;50.024;14.492;2023-10-31T13:13:57;1.05;;;0.80;;
75787;SDS011;64406;50.024;14.492;2023-10-31T13:16:23;2.45;;;0.75;;
75787;SDS011;64406;50.024;14.492;2023-10-31T13:18:52;3.28;;;0.85;;
75787;SDS011;64406;50.024;14.492;2023-10-31T13:21:19;1.15;;;0.60;;
75787;SDS011;64406;50.024;14.492;2023-10-31T13:23:45;2.70;;;0.68;;
75787;SDS011;64406;50.024;14.492;2023-10-31T13:26:13;1.02;;;0.63;;
75787;SDS011;64406;50.024;14.492;2023-10-31T13:28:39;0.70;;;0.50;;
75787;SDS011;64406;50.024;14.492;2023-10-31T13:31:06;2.33;;;0.70;;
75787;SDS011;64406;50.024;14.492;2023-10-31T13:33:32;2.17;;;0.75;;
75787;SDS011;64406;50.024;14.492;2023-10-31T13:35:58;1.08;;;0.50;;
75787;SDS011;64406;50.024;14.492;2023-10-31T13:38:24;3.88;;;0.75;;
75787;SDS011;64406;50.024;14.492;2023-10-31T13:40:49;0.80;;;0.70;;
75787;SDS011;64406;50.024;14.492;2023-10-31T13:43:15;0.50;;;0.50;;
75787;SDS011;64406;50.024;14.492;2023-10-31T13:45:41;1.35;;;0.95;;
75787;SDS011;64406;50.024;14.492;2023-10-31T13:48:07;1.52;;;0.68;;
75787;SDS011;64406;50.024;14.492;2023-10-31T13:50:32;0.50;;;0.50;;
75787;SDS011;64406;50.024;14.492;2023-10-31T13:52:59;0.57;;;0.50;;
75787;SDS011;64406;50.024;14.492;2023-10-31T13:55:24;1.67;;;0.70;;
75787;SDS011;64406;50.024;14.492;2023-10-31T13:57:51;3.20;;;0.80;;
75787;SDS011;64406;50.024;14.492;2023-10-31T14:00:16;0.93;;;0.50;;
75787;SDS011;64406;50.024;14.492;2023-10-31T14:02:42;2.72;;;0.85;;
75787;SDS011;64406;50.024;14.492;2023-10-31T14:05:07;0.90;;;0.65;;
75787;SDS011;64406;50.024;14.492;2023-10-31T14:07:33;1.52;;;0.70;;
75787;SDS011;64406;50.024;14.492;2023-10-31T14:10:00;0.50;;;0.50;;
75787;SDS011;64406;50.024;14.492;2023-10-31T14:12:26;1.30;;;0.73;;
75787;SDS011;64406;50.024;14.492;2023-10-31T14:14:54;1.80;;;0.65;;
75787;SDS011;64406;50.024;14.492;2023-10-31T14:17:20;0.85;;;0.77;;
75787;SDS011;64406;50.024;14.492;2023-10-31T14:19:48;1.67;;;0.70;;
75787;SDS011;64406;50.024;14.492;2023-10-31T14:22:14;0.55;;;0.50;;
75787;SDS011;64406;50.024;14.492;2023-10-31T14:24:39;0.70;;;0.47;;
75787;SDS011;64406;50.024;14.492;2023-10-31T14:27:05;0.73;;;0.57;;
75787;SDS011;64406;50.024;14.492;2023-10-31T14:29:31;1.65;;;0.65;;
75787;SDS011;64406;50.024;14.492;2023-10-31T14:32:01;1.17;;;0.70;;
75787;SDS011;64406;50.024;14.492;2023-10-31T14:34:30;0.68;;;0.60;;
75787;SDS011;64406;50.024;14.492;2023-10-31T14:36:56;0.73;;;0.70;;
75787;SDS011;64406;50.024;14.492;2023-10-31T14:39:22;1.10;;;0.75;;
75787;SDS011;64406;50.024;14.492;2023-10-31T14:41:47;1.88;;;0.60;;
75787;SDS011;64406;50.024;14.492;2023-10-31T14:44:13;1.55;;;1.08;;